createdAt,value
2018-06-27T00:00:22.121Z,15.84
2018-06-27T00:01:22.051Z,15.84
2018-06-27T00:02:21.964Z,15.78
2018-06-27T00:03:21.887Z,15.86
2018-06-27T00:04:21.800Z,15.83
2018-06-27T00:05:21.720Z,15.84
2018-06-27T00:06:21.645Z,15.74
2018-06-27T00:07:21.564Z,15.69
2018-06-27T00:08:21.489Z,15.75
2018-06-27T00:09:21.398Z,15.67
2018-06-27T00:10:21.322Z,15.62
2018-06-27T00:11:21.245Z,15.69
2018-06-27T00:12:21.159Z,15.68
2018-06-27T00:13:21.091Z,15.68
2018-06-27T00:14:21.003Z,15.68
2018-06-27T00:15:20.938Z,15.64
2018-06-27T00:16:20.846Z,15.65
2018-06-27T00:17:20.763Z,15.64
2018-06-27T00:18:20.691Z,15.59
2018-06-27T00:19:20.637Z,15.59
2018-06-27T00:20:20.541Z,15.60
2018-06-27T00:21:20.437Z,15.64
2018-06-27T00:22:20.361Z,15.56
2018-06-27T00:23:20.288Z,15.60
2018-06-27T00:24:20.201Z,15.60
2018-06-27T00:25:20.121Z,15.60
2018-06-27T00:26:20.035Z,15.59
2018-06-27T00:27:19.962Z,15.62
2018-06-27T00:28:19.887Z,15.56
2018-06-27T00:29:19.804Z,15.64
2018-06-27T00:30:19.728Z,15.47
2018-06-27T00:31:19.637Z,15.44
2018-06-27T00:32:19.560Z,15.44
2018-06-27T00:33:19.478Z,15.44
2018-06-27T00:34:19.407Z,15.41
2018-06-27T00:35:19.331Z,15.44
2018-06-27T00:36:19.242Z,15.39
2018-06-27T00:37:19.162Z,15.39
2018-06-27T00:38:19.078Z,15.34
2018-06-27T00:39:19.003Z,15.39
2018-06-27T00:40:18.931Z,15.39
2018-06-27T00:41:18.837Z,15.36
2018-06-27T00:42:18.761Z,15.29
2018-06-27T00:43:18.676Z,15.35
2018-06-27T00:44:18.602Z,15.23
2018-06-27T00:45:18.518Z,15.17
2018-06-27T00:46:18.444Z,15.21
2018-06-27T00:47:18.364Z,15.20
2018-06-27T00:48:18.276Z,15.23
2018-06-27T00:49:18.206Z,15.29
2018-06-27T00:50:18.118Z,15.19
2018-06-27T00:51:18.042Z,15.25
2018-06-27T00:52:17.956Z,15.25
2018-06-27T00:53:17.874Z,15.20
2018-06-27T00:54:17.801Z,15.17
2018-06-27T00:55:17.719Z,15.14
2018-06-27T00:56:17.646Z,15.13
2018-06-27T00:57:17.552Z,15.10
2018-06-27T00:58:17.476Z,15.09
2018-06-27T00:59:17.400Z,15.11
2018-06-27T01:00:17.313Z,15.13
2018-06-27T01:01:17.243Z,15.09
2018-06-27T01:02:17.154Z,15.06
2018-06-27T01:03:17.075Z,15.13
2018-06-27T01:04:16.989Z,15.07
2018-06-27T01:05:16.917Z,15.07
2018-06-27T01:06:16.842Z,15.10
2018-06-27T01:07:16.756Z,15.10
2018-06-27T01:08:16.683Z,15.11
2018-06-27T01:09:16.602Z,15.11
2018-06-27T01:10:16.516Z,15.11
2018-06-27T01:11:16.431Z,15.06
2018-06-27T01:12:16.355Z,15.03
2018-06-27T01:13:16.264Z,14.98
2018-06-27T01:14:16.189Z,15.09
2018-06-27T01:15:16.117Z,14.98
2018-06-27T01:16:16.029Z,15.03
2018-06-27T01:17:15.958Z,15.06
2018-06-27T01:18:15.872Z,14.98
2018-06-27T01:19:15.792Z,15.09
2018-06-27T01:20:15.704Z,15.14
2018-06-27T01:21:15.633Z,15.02
2018-06-27T01:22:15.558Z,15.02
2018-06-27T01:23:15.470Z,15.02
2018-06-27T01:24:15.395Z,15.01
2018-06-27T01:25:15.302Z,15.02
2018-06-27T01:26:15.227Z,15.07
2018-06-27T01:27:15.147Z,15.01
2018-06-27T01:28:15.073Z,15.02
2018-06-27T01:29:14.993Z,15.02
2018-06-27T01:30:14.905Z,15.02
2018-06-27T01:31:14.828Z,14.94
2018-06-27T01:32:14.741Z,14.88
2018-06-27T01:33:14.670Z,14.98
2018-06-27T01:34:14.596Z,14.95
2018-06-27T01:35:14.508Z,14.99
2018-06-27T01:36:14.423Z,14.91
2018-06-27T01:37:14.342Z,14.86
2018-06-27T01:38:14.258Z,14.95
2018-06-27T01:39:14.182Z,14.94
2018-06-27T01:40:14.106Z,14.94
2018-06-27T01:41:14.024Z,14.84
2018-06-27T01:42:13.949Z,14.91
2018-06-27T01:43:13.855Z,14.89
2018-06-27T01:44:13.779Z,14.92
2018-06-27T01:45:13.697Z,14.89
2018-06-27T01:46:13.621Z,14.83
2018-06-27T01:47:13.549Z,14.78
2018-06-27T01:48:13.461Z,14.77
2018-06-27T01:49:13.382Z,14.77
2018-06-27T01:50:13.295Z,14.80
2018-06-27T01:51:13.224Z,14.77
2018-06-27T01:52:13.136Z,14.75
2018-06-27T01:53:13.058Z,14.78
2018-06-27T01:54:12.972Z,14.72
2018-06-27T01:55:12.894Z,14.72
2018-06-27T01:56:12.820Z,14.88
2018-06-27T01:57:12.734Z,14.81
2018-06-27T01:58:12.673Z,14.84
2018-06-27T01:59:12.584Z,14.86
2018-06-27T02:00:12.497Z,14.81
2018-06-27T02:01:12.413Z,14.81
2018-06-27T02:02:12.340Z,14.88
2018-06-27T02:03:12.261Z,14.80
2018-06-27T02:04:12.173Z,14.83
2018-06-27T02:05:12.095Z,14.77
2018-06-27T02:06:12.011Z,14.88
2018-06-27T02:07:11.939Z,14.84
2018-06-27T02:08:11.849Z,14.94
2018-06-27T02:09:11.771Z,14.86
2018-06-27T02:10:11.685Z,14.89
2018-06-27T02:11:11.622Z,14.88
2018-06-27T02:12:11.534Z,14.94
2018-06-27T02:13:11.452Z,14.91
2018-06-27T02:14:11.377Z,14.92
2018-06-27T02:15:11.282Z,14.88
2018-06-27T02:16:11.210Z,14.92
2018-06-27T02:17:11.125Z,14.89
2018-06-27T02:18:11.050Z,14.86
2018-06-27T02:19:10.971Z,14.92
2018-06-27T02:20:10.890Z,14.83
2018-06-27T02:21:10.823Z,14.77
2018-06-27T02:22:10.724Z,14.80
2018-06-27T02:23:10.653Z,14.75
2018-06-27T02:24:10.564Z,14.75
2018-06-27T02:25:10.489Z,14.73
2018-06-27T02:26:10.401Z,14.75
2018-06-27T02:27:10.321Z,14.75
2018-06-27T02:28:10.249Z,14.72
2018-06-27T02:29:10.164Z,14.73
2018-06-27T02:30:10.088Z,14.65
2018-06-27T02:31:10.002Z,14.60
2018-06-27T02:32:09.925Z,14.64
2018-06-27T02:33:09.841Z,14.68
2018-06-27T02:34:09.772Z,14.68
2018-06-27T02:35:09.689Z,14.69
2018-06-27T02:36:09.602Z,14.68
2018-06-27T02:37:09.525Z,14.69
2018-06-27T02:38:09.436Z,14.72
2018-06-27T02:39:09.374Z,14.77
2018-06-27T02:40:09.280Z,14.81
2018-06-27T02:41:09.201Z,14.72
2018-06-27T02:42:09.114Z,14.77
2018-06-27T02:43:09.035Z,14.81
2018-06-27T02:44:08.963Z,14.84
2018-06-27T02:45:08.878Z,14.86
2018-06-27T02:46:08.803Z,14.80
2018-06-27T02:47:08.714Z,14.83
2018-06-27T02:48:08.641Z,14.83
2018-06-27T02:49:08.557Z,14.86
2018-06-27T02:50:08.481Z,14.89
2018-06-27T02:51:08.391Z,14.81
2018-06-27T02:52:08.316Z,14.81
2018-06-27T02:53:08.237Z,14.86
2018-06-27T02:54:08.150Z,14.75
2018-06-27T02:55:08.079Z,14.80
2018-06-27T02:56:07.992Z,14.75
2018-06-27T02:57:07.912Z,14.77
2018-06-27T02:58:07.838Z,14.77
2018-06-27T02:59:07.758Z,14.83
2018-06-27T03:00:07.666Z,14.73
2018-06-27T03:01:07.598Z,14.80
2018-06-27T03:02:07.519Z,14.77
2018-06-27T03:03:07.427Z,14.73
2018-06-27T03:04:07.361Z,14.69
2018-06-27T03:05:07.267Z,14.75
2018-06-27T03:06:07.193Z,14.73
2018-06-27T03:07:07.108Z,14.81
2018-06-27T03:08:07.032Z,14.69
2018-06-27T03:09:06.942Z,14.75
2018-06-27T03:10:06.866Z,14.73
2018-06-27T03:11:06.796Z,14.68
2018-06-27T03:12:06.708Z,14.64
2018-06-27T03:13:06.635Z,14.68
2018-06-27T03:14:06.541Z,14.72
2018-06-27T03:15:06.464Z,14.62
2018-06-27T03:16:06.390Z,14.69
2018-06-27T03:17:06.307Z,14.68
2018-06-27T03:18:06.234Z,14.64
2018-06-27T03:19:06.147Z,14.68
2018-06-27T03:20:06.067Z,14.64
2018-06-27T03:21:05.984Z,14.70
2018-06-27T03:22:05.925Z,14.64
2018-06-27T03:23:05.820Z,14.68
2018-06-27T03:24:05.744Z,14.65
2018-06-27T03:25:05.654Z,14.64
2018-06-27T03:26:05.579Z,14.64
2018-06-27T03:27:05.509Z,14.68
2018-06-27T03:28:05.436Z,14.65
2018-06-27T03:29:05.340Z,14.68
2018-06-27T03:30:05.255Z,14.69
2018-06-27T03:31:05.182Z,14.64
2018-06-27T03:32:05.094Z,14.68
2018-06-27T03:33:05.035Z,14.65
2018-06-27T03:34:04.947Z,14.65
2018-06-27T03:35:04.854Z,14.72
2018-06-27T03:36:04.782Z,14.69
2018-06-27T03:37:04.696Z,14.73
2018-06-27T03:38:04.623Z,14.61
2018-06-27T03:39:04.539Z,14.60
2018-06-27T03:40:04.461Z,14.65
2018-06-27T03:41:04.370Z,14.64
2018-06-27T03:42:04.296Z,14.65
2018-06-27T03:43:04.220Z,14.69
2018-06-27T03:44:04.133Z,14.62
2018-06-27T03:45:04.063Z,14.73
2018-06-27T03:46:03.986Z,14.73
2018-06-27T03:47:03.897Z,14.68
2018-06-27T03:48:03.813Z,14.72
2018-06-27T03:49:03.731Z,14.64
2018-06-27T03:50:03.646Z,14.69
2018-06-27T03:51:03.579Z,14.77
2018-06-27T03:52:03.500Z,14.72
2018-06-27T03:53:03.409Z,14.75
2018-06-27T03:54:03.334Z,14.86
2018-06-27T03:55:03.243Z,14.80
2018-06-27T03:56:03.182Z,14.86
2018-06-27T03:57:03.094Z,14.78
2018-06-27T03:58:03.014Z,14.80
2018-06-27T03:59:02.946Z,14.86
2018-06-27T04:00:02.844Z,14.89
2018-06-27T04:01:02.775Z,14.92
2018-06-27T04:02:02.688Z,14.94
2018-06-27T04:03:02.614Z,14.92
2018-06-27T04:04:02.526Z,14.94
2018-06-27T04:05:02.447Z,15.01
2018-06-27T04:06:02.360Z,15.06
2018-06-27T04:07:02.287Z,15.01
2018-06-27T04:08:02.212Z,15.10
2018-06-27T04:09:02.121Z,15.11
2018-06-27T04:10:02.045Z,15.11
2018-06-27T04:11:01.962Z,15.23
2018-06-27T04:12:01.885Z,15.29
2018-06-27T04:13:01.852Z,15.19
2018-06-27T04:14:01.728Z,15.36
2018-06-27T04:15:01.650Z,15.39
2018-06-27T04:16:01.573Z,15.44
2018-06-27T04:17:01.491Z,15.50
2018-06-27T04:18:01.406Z,15.57
2018-06-27T04:19:01.326Z,15.62
2018-06-27T04:20:01.252Z,15.75
2018-06-27T04:21:01.160Z,15.78
2018-06-27T04:22:01.084Z,15.76
2018-06-27T04:23:01.004Z,15.75
2018-06-27T04:24:00.928Z,15.86
2018-06-27T04:25:00.839Z,15.94
2018-06-27T04:26:00.763Z,15.93
2018-06-27T04:27:00.686Z,15.96
2018-06-27T04:28:00.610Z,15.96
2018-06-27T04:29:00.527Z,16.02
2018-06-27T04:30:00.442Z,16.02
2018-06-27T04:31:00.362Z,15.94
2018-06-27T04:32:00.285Z,16.07
2018-06-27T04:33:00.215Z,16.20
2018-06-27T04:34:00.127Z,16.15
2018-06-27T04:35:00.057Z,16.33
2018-06-27T04:36:00.029Z,16.39
2018-06-27T04:36:59.889Z,16.45
2018-06-27T04:37:59.813Z,16.64
2018-06-27T04:38:59.727Z,16.71
2018-06-27T04:39:59.652Z,16.76
2018-06-27T04:40:59.574Z,16.78
2018-06-27T04:41:59.487Z,17.30
2018-06-27T04:42:59.417Z,17.30
2018-06-27T04:43:59.326Z,17.44
2018-06-27T04:44:59.255Z,17.86
2018-06-27T04:45:59.169Z,18.18
2018-06-27T04:46:59.087Z,18.52
2018-06-27T04:47:59.012Z,18.66
2018-06-27T04:48:58.928Z,18.94
2018-06-27T04:49:58.853Z,19.32
2018-06-27T04:50:58.781Z,19.56
2018-06-27T04:51:58.694Z,19.55
2018-06-27T04:52:58.615Z,19.54
2018-06-27T04:53:58.540Z,19.84
2018-06-27T04:54:58.522Z,20.05
2018-06-27T04:55:58.382Z,19.84
2018-06-27T04:56:58.300Z,19.36
2018-06-27T04:57:58.216Z,19.51
2018-06-27T04:58:58.140Z,18.95
2018-06-27T04:59:58.073Z,19.06
2018-06-27T05:00:57.999Z,18.78
2018-06-27T05:01:57.910Z,18.73
2018-06-27T05:02:57.828Z,18.95
2018-06-27T05:03:57.753Z,18.95
2018-06-27T05:04:57.682Z,18.62
2018-06-27T05:05:57.607Z,18.78
2018-06-27T05:06:57.519Z,18.78
2018-06-27T05:07:57.444Z,18.91
2018-06-27T05:08:57.365Z,18.91
2018-06-27T05:09:57.291Z,18.75
2018-06-27T05:10:57.207Z,18.54
2018-06-27T05:11:57.133Z,18.30
2018-06-27T05:12:57.054Z,18.26
2018-06-27T05:13:56.994Z,18.17
2018-06-27T05:14:56.889Z,17.90
2018-06-27T05:15:56.884Z,17.93
2018-06-27T05:16:56.745Z,17.95
2018-06-27T05:17:56.669Z,18.10
2018-06-27T05:18:56.579Z,18.25
2018-06-27T05:19:56.502Z,18.11
2018-06-27T05:20:56.431Z,18.10
2018-06-27T05:21:56.357Z,18.25
2018-06-27T05:22:56.273Z,18.07
2018-06-27T05:23:56.197Z,18.26
2018-06-27T05:24:56.122Z,18.10
2018-06-27T05:25:56.044Z,18.20
2018-06-27T05:26:55.957Z,18.20
2018-06-27T05:27:55.883Z,18.25
2018-06-27T05:28:55.803Z,18.20
2018-06-27T05:29:55.728Z,18.25
2018-06-27T05:30:55.645Z,18.26
2018-06-27T05:31:55.570Z,18.36
2018-06-27T05:32:55.499Z,18.29
2018-06-27T05:33:55.421Z,18.44
2018-06-27T05:34:55.331Z,18.36
2018-06-27T05:35:55.256Z,18.35
2018-06-27T05:36:55.185Z,18.26
2018-06-27T05:37:55.099Z,18.27
2018-06-27T05:38:55.022Z,18.25
2018-06-27T05:39:54.947Z,18.29
2018-06-27T05:40:54.868Z,18.26
2018-06-27T05:41:54.780Z,18.18
2018-06-27T05:42:54.711Z,18.18
2018-06-27T05:43:54.637Z,18.23
2018-06-27T05:44:54.545Z,18.25
2018-06-27T05:45:54.471Z,18.27
2018-06-27T05:46:54.393Z,18.21
2018-06-27T05:47:54.319Z,18.15
2018-06-27T05:48:54.235Z,18.05
2018-06-27T05:49:54.176Z,17.93
2018-06-27T05:50:54.085Z,18.10
2018-06-27T05:51:54.015Z,18.10
2018-06-27T05:52:53.920Z,18.02
2018-06-27T05:53:53.844Z,18.12
2018-06-27T05:54:53.771Z,18.12
2018-06-27T05:55:53.684Z,18.20
2018-06-27T05:56:53.613Z,18.26
2018-06-27T05:57:53.537Z,18.26
2018-06-27T05:58:53.456Z,18.27
2018-06-27T05:59:53.370Z,18.26
2018-06-27T06:00:53.301Z,18.14
2018-06-27T06:01:53.225Z,18.20
2018-06-27T06:02:53.139Z,18.27
2018-06-27T06:03:53.064Z,18.29
2018-06-27T06:04:52.984Z,18.25
2018-06-27T06:05:52.912Z,18.32
2018-06-27T06:06:52.828Z,18.27
2018-06-27T06:07:52.754Z,18.33
2018-06-27T06:08:52.673Z,18.41
2018-06-27T06:09:52.585Z,18.45
2018-06-27T06:10:52.521Z,18.48
2018-06-27T06:11:52.435Z,18.54
2018-06-27T06:12:52.420Z,18.57
2018-06-27T06:13:52.276Z,18.58
2018-06-27T06:14:52.199Z,18.66
2018-06-27T06:15:52.131Z,18.66
2018-06-27T06:16:52.041Z,18.81
2018-06-27T06:17:51.966Z,18.75
2018-06-27T06:18:51.888Z,18.82
2018-06-27T06:19:51.819Z,18.99
2018-06-27T06:20:51.723Z,19.02
2018-06-27T06:21:51.647Z,18.99
2018-06-27T06:22:51.577Z,19.00
2018-06-27T06:23:51.507Z,19.08
2018-06-27T06:24:51.410Z,19.21
2018-06-27T06:25:51.336Z,19.21
2018-06-27T06:26:51.262Z,19.31
2018-06-27T06:27:51.187Z,19.28
2018-06-27T06:28:51.116Z,19.36
2018-06-27T06:29:51.031Z,19.43
2018-06-27T06:30:50.952Z,19.44
2018-06-27T06:31:50.873Z,19.51
2018-06-27T06:32:50.789Z,19.58
2018-06-27T06:33:50.719Z,19.55
2018-06-27T06:34:50.644Z,19.48
2018-06-27T06:35:50.567Z,19.61
2018-06-27T06:36:50.477Z,19.61
2018-06-27T06:37:50.404Z,19.76
2018-06-27T06:38:50.334Z,19.81
2018-06-27T06:39:50.256Z,19.74
2018-06-27T06:40:50.204Z,19.69
2018-06-27T06:41:50.089Z,19.73
2018-06-27T06:42:50.012Z,19.58
2018-06-27T06:43:49.937Z,19.69
2018-06-27T06:44:49.854Z,19.73
2018-06-27T06:45:49.779Z,19.80
2018-06-27T06:46:49.705Z,19.78
2018-06-27T06:47:49.627Z,19.78
2018-06-27T06:48:49.556Z,19.74
2018-06-27T06:49:49.469Z,19.78
2018-06-27T06:50:49.405Z,19.94
2018-06-27T06:51:49.317Z,19.99
2018-06-27T06:52:49.237Z,20.06
2018-06-27T06:53:49.163Z,20.02
2018-06-27T06:54:49.083Z,20.05
2018-06-27T06:55:49.010Z,20.05
2018-06-27T06:56:48.930Z,20.06
2018-06-27T06:57:48.856Z,20.21
2018-06-27T06:58:48.829Z,20.11
2018-06-27T06:59:48.695Z,20.14
2018-06-27T07:00:48.618Z,20.18
2018-06-27T07:01:48.543Z,20.24
2018-06-27T07:02:48.465Z,20.33
2018-06-27T07:03:48.390Z,20.28
2018-06-27T07:04:48.309Z,20.31
2018-06-27T07:05:48.234Z,20.33
2018-06-27T07:06:48.155Z,20.41
2018-06-27T07:07:48.082Z,20.51
2018-06-27T07:08:48.002Z,20.55
2018-06-27T07:09:47.927Z,20.41
2018-06-27T07:10:47.844Z,20.50
2018-06-27T07:11:47.769Z,20.57
2018-06-27T07:12:47.689Z,20.73
2018-06-27T07:13:47.616Z,20.77
2018-06-27T07:14:47.541Z,20.74
2018-06-27T07:15:47.459Z,20.72
2018-06-27T07:16:47.385Z,20.74
2018-06-27T07:17:47.361Z,20.77
2018-06-27T07:18:47.228Z,20.84
2018-06-27T07:19:47.153Z,20.89
2018-06-27T07:20:47.083Z,20.80
2018-06-27T07:21:46.996Z,20.73
2018-06-27T07:22:46.922Z,20.76
2018-06-27T07:23:46.847Z,20.84
2018-06-27T07:24:46.768Z,20.72
2018-06-27T07:25:46.693Z,20.69
2018-06-27T07:26:46.625Z,20.72
2018-06-27T07:27:46.548Z,20.70
2018-06-27T07:28:46.484Z,20.70
2018-06-27T07:29:46.382Z,21.01
2018-06-27T07:30:46.305Z,21.10
2018-06-27T07:31:46.231Z,21.29
2018-06-27T07:32:46.159Z,21.40
2018-06-27T07:33:46.085Z,21.38
2018-06-27T07:34:46.008Z,21.54
2018-06-27T07:35:45.921Z,21.74
2018-06-27T07:36:45.849Z,21.91
2018-06-27T07:37:45.774Z,21.82
2018-06-27T07:38:45.697Z,22.06
2018-06-27T07:39:45.622Z,22.05
2018-06-27T07:40:45.543Z,22.05
2018-06-27T07:41:45.468Z,22.31
2018-06-27T07:42:45.397Z,22.46
2018-06-27T07:43:45.322Z,22.40
2018-06-27T07:44:45.243Z,22.35
2018-06-27T07:45:45.157Z,22.72
2018-06-27T07:46:45.084Z,22.14
2018-06-27T07:47:45.009Z,22.75
2018-06-27T07:48:44.938Z,23.25
2018-06-27T07:49:44.917Z,23.80
2018-06-27T07:50:44.783Z,24.61
2018-06-27T07:51:44.709Z,24.34
2018-06-27T07:52:44.636Z,24.64
2018-06-27T07:53:44.573Z,24.34
2018-06-27T07:54:44.515Z,23.36
2018-06-27T07:55:44.426Z,23.63
2018-06-27T07:56:44.347Z,24.60
2018-06-27T07:57:44.272Z,24.81
2018-06-27T07:58:44.208Z,24.32
2018-06-27T07:59:44.120Z,24.96
2018-06-27T08:00:44.050Z,24.62
2018-06-27T08:01:43.988Z,24.83
2018-06-27T08:02:43.915Z,25.28
2018-06-27T08:03:43.840Z,25.14
2018-06-27T08:04:43.761Z,25.33
2018-06-27T08:05:43.698Z,25.73
2018-06-27T08:06:43.625Z,25.87
2018-06-27T08:07:43.552Z,25.28
2018-06-27T08:08:43.491Z,26.13
2018-06-27T08:09:43.409Z,25.88
2018-06-27T08:10:43.337Z,25.98
2018-06-27T08:11:43.273Z,25.97
2018-06-27T08:12:43.221Z,26.18
2018-06-27T08:13:43.140Z,26.67
2018-06-27T08:14:43.062Z,27.18
2018-06-27T08:15:43.001Z,26.77
2018-06-27T08:16:42.928Z,26.50
2018-06-27T08:17:42.952Z,26.82
2018-06-27T08:18:42.794Z,27.21
2018-06-27T08:19:42.726Z,26.88
2018-06-27T08:20:42.660Z,27.14
2018-06-27T08:21:42.590Z,27.02
2018-06-27T08:22:42.529Z,27.44
2018-06-27T08:23:42.467Z,27.18
2018-06-27T08:24:42.390Z,26.80
2018-06-27T08:25:42.315Z,26.84
2018-06-27T08:26:42.248Z,26.77
2018-06-27T08:27:42.203Z,27.46
2018-06-27T08:28:42.116Z,26.09
2018-06-27T08:29:42.052Z,25.50
2018-06-27T08:30:41.986Z,24.45
2018-06-27T08:31:41.912Z,24.16
2018-06-27T08:32:41.853Z,23.97
2018-06-27T08:33:41.792Z,23.79
2018-06-27T08:34:41.719Z,23.33
2018-06-27T08:35:41.655Z,22.79
2018-06-27T08:36:41.589Z,22.79
2018-06-27T08:37:41.514Z,23.02
2018-06-27T08:38:41.441Z,23.68
2018-06-27T08:39:41.382Z,23.38
2018-06-27T08:40:41.300Z,23.01
2018-06-27T08:41:41.237Z,23.47
2018-06-27T08:42:41.176Z,23.27
2018-06-27T08:43:41.136Z,22.92
2018-06-27T08:44:41.031Z,22.90
2018-06-27T08:45:40.969Z,22.83
2018-06-27T08:46:40.890Z,22.39
2018-06-27T08:47:40.827Z,22.09
2018-06-27T08:48:40.756Z,22.05
2018-06-27T08:49:40.681Z,22.73
2018-06-27T08:50:40.618Z,22.49
2018-06-27T08:51:40.558Z,22.47
2018-06-27T08:52:40.464Z,23.38
2018-06-27T08:53:40.402Z,24.50
2018-06-27T08:54:40.332Z,23.54
2018-06-27T08:55:40.257Z,22.94
2018-06-27T08:56:40.180Z,22.92
2018-06-27T08:57:40.116Z,22.85
2018-06-27T08:58:40.082Z,22.76
2018-06-27T08:59:39.966Z,22.75
2018-06-27T09:00:39.906Z,22.94
2018-06-27T09:01:39.831Z,22.97
2018-06-27T09:02:39.754Z,23.39
2018-06-27T09:03:39.693Z,24.49
2018-06-27T09:04:39.623Z,24.83
2018-06-27T09:05:39.559Z,25.65
2018-06-27T09:06:39.469Z,26.10
2018-06-27T09:07:39.455Z,26.87
2018-06-27T09:08:39.327Z,27.14
2018-06-27T09:09:39.255Z,26.67
2018-06-27T09:10:39.196Z,25.95
2018-06-27T09:11:39.122Z,25.88
2018-06-27T09:12:39.055Z,25.51
2018-06-27T09:13:38.992Z,25.23
2018-06-27T09:14:38.916Z,24.90
2018-06-27T09:15:38.854Z,24.93
2018-06-27T09:16:38.800Z,25.03
2018-06-27T09:17:38.708Z,25.42
2018-06-27T09:18:38.658Z,25.32
2018-06-27T09:19:38.567Z,25.08
2018-06-27T09:20:38.508Z,24.21
2018-06-27T09:21:38.437Z,24.15
2018-06-27T09:22:38.373Z,24.98
2018-06-27T09:23:38.298Z,25.39
2018-06-27T09:24:38.230Z,26.23
2018-06-27T09:25:38.156Z,26.47
2018-06-27T09:26:38.097Z,26.06
2018-06-27T09:27:38.021Z,26.05
2018-06-27T09:28:37.954Z,25.94
2018-06-27T09:29:37.879Z,26.60
2018-06-27T09:30:37.820Z,26.18
2018-06-27T09:31:37.758Z,25.99
2018-06-27T09:32:37.687Z,24.99
2018-06-27T09:33:37.624Z,23.94
2018-06-27T09:34:37.545Z,23.54
2018-06-27T09:35:37.483Z,23.75
2018-06-27T09:36:37.412Z,25.06
2018-06-27T09:37:37.350Z,25.60
2018-06-27T09:38:37.273Z,26.05
2018-06-27T09:39:37.210Z,26.37
2018-06-27T09:40:37.130Z,25.55
2018-06-27T09:41:37.070Z,25.18
2018-06-27T09:42:37.012Z,25.27
2018-06-27T09:43:36.941Z,25.32
2018-06-27T09:44:36.871Z,25.00
2018-06-27T09:45:36.797Z,24.83
2018-06-27T09:46:36.731Z,24.32
2018-06-27T09:47:36.657Z,24.20
2018-06-27T09:48:36.599Z,24.06
2018-06-27T09:49:36.524Z,23.51
2018-06-27T09:50:36.457Z,23.38
2018-06-27T09:51:36.384Z,23.12
2018-06-27T09:52:36.324Z,23.22
2018-06-27T09:53:36.249Z,23.32
2018-06-27T09:54:36.188Z,23.46
2018-06-27T09:55:36.115Z,23.70
2018-06-27T09:56:36.109Z,24.95
2018-06-27T09:57:35.973Z,25.92
2018-06-27T09:58:35.912Z,25.60
2018-06-27T09:59:35.837Z,25.09
2018-06-27T10:00:35.759Z,24.49
2018-06-27T10:01:35.696Z,24.32
2018-06-27T10:02:35.623Z,24.13
2018-06-27T10:03:35.560Z,24.30
2018-06-27T10:04:35.489Z,25.39
2018-06-27T10:05:35.427Z,25.42
2018-06-27T10:06:35.353Z,25.85
2018-06-27T10:07:35.290Z,25.24
2018-06-27T10:08:35.210Z,25.61
2018-06-27T10:09:35.148Z,25.00
2018-06-27T10:10:35.071Z,24.77
2018-06-27T10:11:35.009Z,24.43
2018-06-27T10:12:34.938Z,24.77
2018-06-27T10:13:34.876Z,24.78
2018-06-27T10:14:34.800Z,24.99
2018-06-27T10:15:34.736Z,24.71
2018-06-27T10:16:34.666Z,24.91
2018-06-27T10:17:34.603Z,25.17
2018-06-27T10:18:34.526Z,25.43
2018-06-27T10:19:34.459Z,25.76
2018-06-27T10:20:34.385Z,25.64
2018-06-27T10:21:34.322Z,25.50
2018-06-27T10:22:34.282Z,25.38
2018-06-27T10:23:34.177Z,25.33
2018-06-27T10:24:34.101Z,25.20
2018-06-27T10:25:34.035Z,24.64
2018-06-27T10:26:33.963Z,24.67
2018-06-27T10:27:33.901Z,25.02
2018-06-27T10:28:33.848Z,25.28
2018-06-27T10:29:33.763Z,25.40
2018-06-27T10:30:33.686Z,25.51
2018-06-27T10:31:33.624Z,25.72
2018-06-27T10:32:33.539Z,25.38
2018-06-27T10:33:33.480Z,25.30
2018-06-27T10:34:33.412Z,24.83
2018-06-27T10:35:33.332Z,24.80
2018-06-27T10:36:33.263Z,24.57
2018-06-27T10:37:33.188Z,24.43
2018-06-27T10:38:33.120Z,24.80
2018-06-27T10:39:33.058Z,24.67
2018-06-27T10:40:32.980Z,24.95
2018-06-27T10:41:32.913Z,25.23
2018-06-27T10:42:32.850Z,25.45
2018-06-27T10:43:32.762Z,25.79
2018-06-27T10:44:32.717Z,25.92
2018-06-27T10:45:32.629Z,25.82
2018-06-27T10:46:32.553Z,25.55
2018-06-27T10:47:32.489Z,25.69
2018-06-27T10:48:32.419Z,25.82
2018-06-27T10:49:32.345Z,25.67
2018-06-27T10:50:32.279Z,25.21
2018-06-27T10:51:32.205Z,24.62
2018-06-27T10:52:32.126Z,24.62
2018-06-27T10:53:32.063Z,25.10
2018-06-27T10:54:31.992Z,26.06
2018-06-27T10:55:31.919Z,26.87
2018-06-27T10:56:31.851Z,27.69
2018-06-27T10:57:31.777Z,28.06
2018-06-27T10:58:31.726Z,28.44
2018-06-27T10:59:31.641Z,28.89
2018-06-27T11:00:31.583Z,28.77
2018-06-27T11:01:31.508Z,29.04
2018-06-27T11:02:31.439Z,29.27
2018-06-27T11:03:31.377Z,29.79
2018-06-27T11:04:31.312Z,29.33
2018-06-27T11:05:31.244Z,29.37
2018-06-27T11:06:31.184Z,28.83
2018-06-27T11:07:31.109Z,29.31
2018-06-27T11:08:31.042Z,28.92
2018-06-27T11:09:30.981Z,29.21
2018-06-27T11:10:30.919Z,29.48
2018-06-27T11:11:30.845Z,29.06
2018-06-27T11:12:30.778Z,29.67
2018-06-27T11:13:30.715Z,29.21
2018-06-27T11:14:30.656Z,29.09
2018-06-27T11:15:30.592Z,29.09
2018-06-27T11:16:30.535Z,28.11
2018-06-27T11:17:30.460Z,27.49
2018-06-27T11:18:30.391Z,27.28
2018-06-27T11:19:30.329Z,28.43
2018-06-27T11:20:30.317Z,27.81
2018-06-27T11:21:30.208Z,28.25
2018-06-27T11:22:30.147Z,29.00
2018-06-27T11:23:30.073Z,29.11
2018-06-27T11:24:30.013Z,28.07
2018-06-27T11:25:29.944Z,26.70
2018-06-27T11:26:29.886Z,25.94
2018-06-27T11:27:29.887Z,25.73
2018-06-27T11:28:29.745Z,25.94
2018-06-27T11:29:29.694Z,27.62
2018-06-27T11:30:29.633Z,28.19
2018-06-27T11:31:29.555Z,28.46
2018-06-27T11:32:29.496Z,29.04
2018-06-27T11:33:29.434Z,29.43
2018-06-27T11:34:29.359Z,29.80
2018-06-27T11:35:29.295Z,28.64
2018-06-27T11:36:29.225Z,28.21
2018-06-27T11:37:29.163Z,28.77
2018-06-27T11:38:29.184Z,27.59
2018-06-27T11:39:29.038Z,26.52
2018-06-27T11:40:28.982Z,26.12
2018-06-27T11:41:28.894Z,26.17
2018-06-27T11:42:28.837Z,25.87
2018-06-27T11:43:28.786Z,26.62
2018-06-27T11:44:28.723Z,27.55
2018-06-27T11:45:28.635Z,27.29
2018-06-27T11:46:28.571Z,27.57
2018-06-27T11:47:28.511Z,27.66
2018-06-27T11:48:28.439Z,27.13
2018-06-27T11:49:28.377Z,28.25
2018-06-27T11:50:28.312Z,28.78
2018-06-27T11:51:28.244Z,29.51
2018-06-27T11:52:28.174Z,30.15
2018-06-27T11:53:28.113Z,30.62
2018-06-27T11:54:28.051Z,31.46
2018-06-27T11:55:27.989Z,31.14
2018-06-27T12:36:29.304Z,29.94
2018-06-27T12:37:29.237Z,30.47
2018-06-27T12:41:17.692Z,30.60
2018-06-27T12:42:59.766Z,30.49
2018-06-27T13:21:54.760Z,25.55
2018-06-27T13:34:08.747Z,25.67
2018-06-27T13:35:08.680Z,25.60
2018-06-27T13:36:08.605Z,25.55
2018-06-27T13:37:08.546Z,25.64
2018-06-27T13:38:08.474Z,25.77
2018-06-27T13:39:08.411Z,25.70
2018-06-27T13:40:08.341Z,25.72
2018-06-27T13:41:08.269Z,25.65
2018-06-27T13:42:08.194Z,25.58
2018-06-27T13:43:08.123Z,25.50
2018-06-27T13:44:08.074Z,25.50
2018-06-27T13:45:07.988Z,25.27
2018-06-27T13:46:07.925Z,25.42
2018-06-27T13:47:07.846Z,25.64
2018-06-27T13:48:07.773Z,25.60
2018-06-27T13:49:07.713Z,25.47
2018-06-27T13:50:07.642Z,25.47
2018-06-27T13:51:07.572Z,25.40
2018-06-27T13:52:07.497Z,25.43
2018-06-27T13:53:07.432Z,25.38
2018-06-27T13:54:07.374Z,25.45
2018-06-27T13:55:07.287Z,25.45
2018-06-27T13:56:07.213Z,25.51
2018-06-27T13:57:07.147Z,25.33
2018-06-27T13:58:07.073Z,25.32
2018-06-27T13:59:07.013Z,25.32
2018-06-27T14:00:06.939Z,25.35
2018-06-27T14:01:06.865Z,25.36
2018-06-27T14:02:06.804Z,25.35
2018-06-27T14:03:06.722Z,25.43
2018-06-27T14:04:06.651Z,25.77
2018-06-27T14:05:06.588Z,25.76
2018-06-27T14:06:06.525Z,25.94
2018-06-27T14:07:06.433Z,25.98
2018-06-27T14:08:06.371Z,25.75
2018-06-27T14:09:06.300Z,25.77
2018-06-27T14:10:06.224Z,25.80
2018-06-27T14:11:06.165Z,25.90
2018-06-27T14:12:06.090Z,25.94
2018-06-27T14:13:06.009Z,25.88
2018-06-27T14:14:05.947Z,25.82
2018-06-27T14:15:05.877Z,25.88
2018-06-27T14:16:05.802Z,25.79
2018-06-27T14:17:05.745Z,25.70
2018-06-27T14:18:05.666Z,25.40
2018-06-27T14:19:05.587Z,25.38
2018-06-27T14:20:05.524Z,25.23
2018-06-27T14:21:05.455Z,24.99
2018-06-27T14:22:05.380Z,24.77
2018-06-27T14:23:05.311Z,24.78
2018-06-27T14:24:05.316Z,24.64